Ramer, Alabama
Current Conditions -  °F | °C
As of 12:53 PM on Tuesday 27 Jan 2015 (Local Time) from KTOI Reporting Station
Clear Clear  
Wind Chill: 60°   Ceiling: Unl
Heat Index: 60°   Visibility: 10mi
Dew Point: 33°   Wind: 18mph
Humidity: 36%   Direction: 330°NNW
Pressure: 30"   Gusts: 25mph
Location:  32.05°N, 86.22°W
Report Text: KTOI 271853Z AUTO 33016G22KT 10SM CLR 16/01 A3000 RMK AO2 SLP156 T01560006
Loading
Personal Weather Stations






























Interactive Weather Map New forecast layout! Learn more

10-Day Weather Forecast

Advertisements
Track Severe Weather on mobile